sensor_id;sensor_type;location;lat;lon;timestamp;pressure;altitude;pressure_sealevel;temperature;humidity
57232;BME280;43488;46.934;8.276;2023-02-16T00:00:38;97607.66;;;2.76;79.73
57232;BME280;43488;46.934;8.276;2023-02-16T00:03:20;97612.09;;;2.64;79.62
57232;BME280;43488;46.934;8.276;2023-02-16T00:05:49;97616.19;;;2.57;79.84
57232;BME280;43488;46.934;8.276;2023-02-16T00:08:17;97609.91;;;2.60;79.31
57232;BME280;43488;46.934;8.276;2023-02-16T00:10:44;97615.75;;;2.52;78.73
57232;BME280;43488;46.934;8.276;2023-02-16T00:13:30;97611.84;;;2.37;78.72
57232;BME280;43488;46.934;8.276;2023-02-16T00:16:15;97617.31;;;2.34;78.98
57232;BME280;43488;46.934;8.276;2023-02-16T00:18:44;97615.78;;;2.31;79.38
57232;BME280;43488;46.934;8.276;2023-02-16T00:21:11;97613.75;;;2.35;78.88
57232;BME280;43488;46.934;8.276;2023-02-16T00:23:39;97614.34;;;2.38;78.90
57232;BME280;43488;46.934;8.276;2023-02-16T00:28:44;97612.28;;;2.42;78.77
57232;BME280;43488;46.934;8.276;2023-02-16T00:31:17;97611.34;;;2.43;78.90
57232;BME280;43488;46.934;8.276;2023-02-16T00:33:45;97604.50;;;2.42;78.78
57232;BME280;43488;46.934;8.276;2023-02-16T00:36:12;97602.31;;;2.47;78.77
57232;BME280;43488;46.934;8.276;2023-02-16T00:38:40;97605.59;;;2.39;78.81
57232;BME280;43488;46.934;8.276;2023-02-16T00:41:23;97606.63;;;2.37;80.43
57232;BME280;43488;46.934;8.276;2023-02-16T00:44:17;97598.47;;;2.41;81.46
57232;BME280;43488;46.934;8.276;2023-02-16T00:46:46;97607.91;;;2.42;81.43
57232;BME280;43488;46.934;8.276;2023-02-16T00:49:19;97608.03;;;2.41;80.85
57232;BME280;43488;46.934;8.276;2023-02-16T00:51:47;97610.19;;;2.36;82.31
57232;BME280;43488;46.934;8.276;2023-02-16T00:54:15;97612.66;;;2.37;82.54
57232;BME280;43488;46.934;8.276;2023-02-16T00:56:42;97609.81;;;2.40;82.90
57232;BME280;43488;46.934;8.276;2023-02-16T00:59:18;97612.84;;;2.45;83.03
57232;BME280;43488;46.934;8.276;2023-02-16T01:01:48;97616.25;;;2.46;83.00
57232;BME280;43488;46.934;8.276;2023-02-16T01:04:22;97621.47;;;2.46;82.98
57232;BME280;43488;46.934;8.276;2023-02-16T01:06:49;97624.31;;;2.43;82.05
57232;BME280;43488;46.934;8.276;2023-02-16T01:09:35;97616.78;;;2.40;83.16
57232;BME280;43488;46.934;8.276;2023-02-16T01:12:21;97623.88;;;2.38;82.82
57232;BME280;43488;46.934;8.276;2023-02-16T01:14:52;97618.44;;;2.41;82.56
57232;BME280;43488;46.934;8.276;2023-02-16T01:17:21;97624.41;;;2.32;82.69
57232;BME280;43488;46.934;8.276;2023-02-16T01:19:49;97624.97;;;2.35;83.19
57232;BME280;43488;46.934;8.276;2023-02-16T01:22:17;97638.09;;;2.34;81.80
57232;BME280;43488;46.934;8.276;2023-02-16T01:24:45;97636.06;;;2.16;81.79
57232;BME280;43488;46.934;8.276;2023-02-16T01:27:13;97637.97;;;2.14;82.40
57232;BME280;43488;46.934;8.276;2023-02-16T01:29:40;97640.56;;;2.14;81.29
57232;BME280;43488;46.934;8.276;2023-02-16T01:32:11;97639.06;;;2.12;80.87
57232;BME280;43488;46.934;8.276;2023-02-16T01:34:38;97644.75;;;2.06;80.86
57232;BME280;43488;46.934;8.276;2023-02-16T01:37:13;97639.06;;;2.12;80.44
57232;BME280;43488;46.934;8.276;2023-02-16T01:39:41;97637.53;;;2.09;80.51
57232;BME280;43488;46.934;8.276;2023-02-16T01:42:44;97629.72;;;2.09;79.73
57232;BME280;43488;46.934;8.276;2023-02-16T01:45:26;97626.13;;;2.00;78.99
57232;BME280;43488;46.934;8.276;2023-02-16T01:48:08;97631.22;;;2.02;79.00
57232;BME280;43488;46.934;8.276;2023-02-16T01:50:48;97630.41;;;1.90;78.79
57232;BME280;43488;46.934;8.276;2023-02-16T01:53:39;97633.06;;;1.79;78.43
57232;BME280;43488;46.934;8.276;2023-02-16T01:56:29;97621.78;;;1.69;78.95
57232;BME280;43488;46.934;8.276;2023-02-16T02:02:02;97620.03;;;1.69;81.47
57232;BME280;43488;46.934;8.276;2023-02-16T02:04:52;97613.38;;;1.77;81.19
57232;BME280;43488;46.934;8.276;2023-02-16T02:07:55;97617.25;;;1.82;80.29
57232;BME280;43488;46.934;8.276;2023-02-16T02:13:14;97603.34;;;1.83;80.73
57232;BME280;43488;46.934;8.276;2023-02-16T02:15:44;97606.84;;;1.82;82.14
57232;BME280;43488;46.934;8.276;2023-02-16T02:18:12;97607.44;;;1.86;82.17
57232;BME280;43488;46.934;8.276;2023-02-16T02:27:25;97623.66;;;1.78;80.26
57232;BME280;43488;46.934;8.276;2023-02-16T02:33:38;97641.75;;;1.68;79.59
57232;BME280;43488;46.934;8.276;2023-02-16T02:36:44;97636.81;;;1.65;80.16
57232;BME280;43488;46.934;8.276;2023-02-16T02:39:51;97638.13;;;1.60;80.19
57232;BME280;43488;46.934;8.276;2023-02-16T02:42:57;97636.81;;;1.54;81.57
57232;BME280;43488;46.934;8.276;2023-02-16T02:45:40;97633.41;;;1.54;81.16
57232;BME280;43488;46.934;8.276;2023-02-16T02:48:10;97633.00;;;1.37;81.88
57232;BME280;43488;46.934;8.276;2023-02-16T02:51:00;97636.88;;;1.43;81.14
57232;BME280;43488;46.934;8.276;2023-02-16T02:53:53;97637.47;;;1.35;80.74
57232;BME280;43488;46.934;8.276;2023-02-16T02:56:51;97635.22;;;1.42;80.78
57232;BME280;43488;46.934;8.276;2023-02-16T02:59:42;97634.16;;;1.45;81.76
57232;BME280;43488;46.934;8.276;2023-02-16T03:02:32;97636.59;;;1.46;82.36
57232;BME280;43488;46.934;8.276;2023-02-16T03:05:02;97633.09;;;1.47;83.52
57232;BME280;43488;46.934;8.276;2023-02-16T03:07:32;97627.66;;;1.50;83.85
57232;BME280;43488;46.934;8.276;2023-02-16T03:10:25;97631.63;;;1.54;84.29
57232;BME280;43488;46.934;8.276;2023-02-16T03:13:29;97637.09;;;1.51;85.04
57232;BME280;43488;46.934;8.276;2023-02-16T03:16:06;97627.66;;;1.50;85.46
57232;BME280;43488;46.934;8.276;2023-02-16T03:18:36;97635.69;;;1.47;85.53
57232;BME280;43488;46.934;8.276;2023-02-16T03:21:26;97633.41;;;1.54;85.86
57232;BME280;43488;46.934;8.276;2023-02-16T03:24:20;97626.22;;;1.46;86.15
57232;BME280;43488;46.934;8.276;2023-02-16T03:27:08;97626.22;;;1.46;86.70
57232;BME280;43488;46.934;8.276;2023-02-16T03:29:55;97621.75;;;1.48;86.70
57232;BME280;43488;46.934;8.276;2023-02-16T03:32:23;97619.72;;;1.52;87.08
57232;BME280;43488;46.934;8.276;2023-02-16T03:34:50;97618.34;;;1.48;87.38
57232;BME280;43488;46.934;8.276;2023-02-16T03:37:18;97621.03;;;1.46;88.67
57232;BME280;43488;46.934;8.276;2023-02-16T03:39:47;97622.00;;;1.45;88.25
57232;BME280;43488;46.934;8.276;2023-02-16T03:42:33;97628.13;;;1.44;88.42
57232;BME280;43488;46.934;8.276;2023-02-16T03:45:01;97623.09;;;1.31;89.69
57232;BME280;43488;46.934;8.276;2023-02-16T03:47:29;97621.34;;;1.32;90.15
57232;BME280;43488;46.934;8.276;2023-02-16T03:49:57;97624.78;;;1.21;88.26
57232;BME280;43488;46.934;8.276;2023-02-16T03:52:24;97632.31;;;1.24;88.23
57232;BME280;43488;46.934;8.276;2023-02-16T03:54:52;97622.28;;;1.31;88.01
57232;BME280;43488;46.934;8.276;2023-02-16T03:57:19;97621.47;;;1.30;88.26
57232;BME280;43488;46.934;8.276;2023-02-16T03:59:46;97624.75;;;1.32;86.91
57232;BME280;43488;46.934;8.276;2023-02-16T04:02:13;97609.66;;;1.26;86.86
57232;BME280;43488;46.934;8.276;2023-02-16T04:04:40;97612.13;;;1.28;86.66
57232;BME280;43488;46.934;8.276;2023-02-16T04:07:08;97606.13;;;1.27;88.05
57232;BME280;43488;46.934;8.276;2023-02-16T04:09:35;97610.13;;;1.31;88.50
57232;BME280;43488;46.934;8.276;2023-02-16T04:12:04;97609.91;;;1.23;87.53
57232;BME280;43488;46.934;8.276;2023-02-16T04:14:50;97616.88;;;1.23;87.92
57232;BME280;43488;46.934;8.276;2023-02-16T04:17:18;97618.19;;;1.17;88.56
57232;BME280;43488;46.934;8.276;2023-02-16T04:19:45;97615.16;;;1.12;87.95
57232;BME280;43488;46.934;8.276;2023-02-16T04:22:13;97616.91;;;1.00;87.73
57232;BME280;43488;46.934;8.276;2023-02-16T04:24:41;97613.84;;;1.06;88.05
57232;BME280;43488;46.934;8.276;2023-02-16T04:27:09;97605.38;;;1.04;86.74
57232;BME280;43488;46.934;8.276;2023-02-16T04:29:38;97605.03;;;0.98;87.38
57232;BME280;43488;46.934;8.276;2023-02-16T04:32:05;97613.97;;;1.05;87.30
57232;BME280;43488;46.934;8.276;2023-02-16T04:34:32;97616.09;;;1.11;88.33
57232;BME280;43488;46.934;8.276;2023-02-16T04:37:00;97608.53;;;1.08;88.06
57232;BME280;43488;46.934;8.276;2023-02-16T04:39:28;97605.00;;;1.09;87.76
57232;BME280;43488;46.934;8.276;2023-02-16T04:41:55;97606.53;;;1.11;87.84
57232;BME280;43488;46.934;8.276;2023-02-16T04:44:22;97608.19;;;1.12;89.58
57232;BME280;43488;46.934;8.276;2023-02-16T04:46:50;97610.69;;;1.03;88.68
57232;BME280;43488;46.934;8.276;2023-02-16T04:49:18;97613.59;;;1.09;87.33
57232;BME280;43488;46.934;8.276;2023-02-16T04:51:45;97609.25;;;1.10;85.97
57232;BME280;43488;46.934;8.276;2023-02-16T04:54:12;97614.91;;;1.04;85.81
57232;BME280;43488;46.934;8.276;2023-02-16T04:56:43;97612.19;;;1.05;85.95
57232;BME280;43488;46.934;8.276;2023-02-16T04:59:10;97619.16;;;1.05;85.32
57232;BME280;43488;46.934;8.276;2023-02-16T05:01:37;97615.88;;;1.03;87.01
57232;BME280;43488;46.934;8.276;2023-02-16T05:04:05;97619.84;;;1.07;88.92
57232;BME280;43488;46.934;8.276;2023-02-16T05:06:32;97622.69;;;1.04;87.28
57232;BME280;43488;46.934;8.276;2023-02-16T05:08:59;97626.13;;;1.04;87.01
57232;BME280;43488;46.934;8.276;2023-02-16T05:11:28;97630.25;;;0.96;86.33
57232;BME280;43488;46.934;8.276;2023-02-16T05:14:22;97637.78;;;0.99;85.55
57232;BME280;43488;46.934;8.276;2023-02-16T05:19:57;97634.38;;;0.87;84.96
57232;BME280;43488;46.934;8.276;2023-02-16T05:22:25;97635.22;;;0.88;85.43
57232;BME280;43488;46.934;8.276;2023-02-16T05:24:54;97637.47;;;0.92;85.38
57232;BME280;43488;46.934;8.276;2023-02-16T05:27:24;97638.28;;;0.93;84.71
57232;BME280;43488;46.934;8.276;2023-02-16T05:29:52;97639.56;;;0.87;84.45
57232;BME280;43488;46.934;8.276;2023-02-16T05:32:19;97633.31;;;0.90;83.53
57232;BME280;43488;46.934;8.276;2023-02-16T05:34:47;97641.69;;;0.82;82.43
57232;BME280;43488;46.934;8.276;2023-02-16T05:37:16;97634.28;;;0.77;83.85
57232;BME280;43488;46.934;8.276;2023-02-16T05:39:44;97641.94;;;0.79;82.83
57232;BME280;43488;46.934;8.276;2023-02-16T05:42:12;97643.81;;;0.77;83.35
57232;BME280;43488;46.934;8.276;2023-02-16T05:44:39;97640.41;;;0.76;82.67
57232;BME280;43488;46.934;8.276;2023-02-16T05:47:06;97642.50;;;0.71;82.83
57232;BME280;43488;46.934;8.276;2023-02-16T05:49:34;97650.88;;;0.64;82.79
57232;BME280;43488;46.934;8.276;2023-02-16T05:52:01;97649.84;;;0.66;82.97
57232;BME280;43488;46.934;8.276;2023-02-16T05:54:29;97657.50;;;0.68;83.93
57232;BME280;43488;46.934;8.276;2023-02-16T05:56:56;97655.97;;;0.65;85.39
57232;BME280;43488;46.934;8.276;2023-02-16T05:59:23;97655.47;;;0.71;85.51
57232;BME280;43488;46.934;8.276;2023-02-16T06:01:51;97660.44;;;0.74;85.11
57232;BME280;43488;46.934;8.276;2023-02-16T06:04:19;97668.09;;;0.76;84.94
57232;BME280;43488;46.934;8.276;2023-02-16T06:06:48;97665.63;;;0.74;85.79
57232;BME280;43488;46.934;8.276;2023-02-16T06:09:16;97657.03;;;0.74;85.65
57232;BME280;43488;46.934;8.276;2023-02-16T06:11:43;97673.16;;;0.77;85.55
57232;BME280;43488;46.934;8.276;2023-02-16T06:14:14;97670.00;;;0.74;83.71
57232;BME280;43488;46.934;8.276;2023-02-16T06:16:45;97669.16;;;0.73;84.34
57232;BME280;43488;46.934;8.276;2023-02-16T06:19:15;97671.38;;;0.78;85.73
57232;BME280;43488;46.934;8.276;2023-02-16T06:21:44;97679.53;;;0.73;86.84
57232;BME280;43488;46.934;8.276;2023-02-16T06:24:12;97677.28;;;0.69;87.09
57232;BME280;43488;46.934;8.276;2023-02-16T06:26:40;97672.22;;;0.67;87.86
57232;BME280;43488;46.934;8.276;2023-02-16T06:29:08;97666.22;;;0.67;86.67
57232;BME280;43488;46.934;8.276;2023-02-16T06:31:36;97663.63;;;0.67;86.52
57232;BME280;43488;46.934;8.276;2023-02-16T06:34:03;97662.78;;;0.66;86.29
57232;BME280;43488;46.934;8.276;2023-02-16T06:36:31;97672.78;;;0.71;86.68
57232;BME280;43488;46.934;8.276;2023-02-16T06:38:59;97665.72;;;0.73;86.92
57232;BME280;43488;46.934;8.276;2023-02-16T06:41:26;97671.25;;;0.79;85.75
57232;BME280;43488;46.934;8.276;2023-02-16T06:44:13;97661.72;;;0.80;85.61
57232;BME280;43488;46.934;8.276;2023-02-16T06:46:44;97660.78;;;0.81;85.58
57232;BME280;43488;46.934;8.276;2023-02-16T06:49:14;97669.38;;;0.81;85.70
57232;BME280;43488;46.934;8.276;2023-02-16T06:51:44;97687.19;;;0.75;85.44
57232;BME280;43488;46.934;8.276;2023-02-16T06:54:12;97693.31;;;0.74;85.03
57232;BME280;43488;46.934;8.276;2023-02-16T06:56:40;97687.66;;;0.69;84.53
57232;BME280;43488;46.934;8.276;2023-02-16T06:59:07;97699.91;;;0.67;85.07
57232;BME280;43488;46.934;8.276;2023-02-16T07:01:35;97707.56;;;0.68;85.15
57232;BME280;43488;46.934;8.276;2023-02-16T07:04:02;97704.25;;;0.66;84.90
57232;BME280;43488;46.934;8.276;2023-02-16T07:06:29;97701.56;;;0.68;84.36
57232;BME280;43488;46.934;8.276;2023-02-16T07:08:58;97707.44;;;0.59;84.43
57232;BME280;43488;46.934;8.276;2023-02-16T07:11:25;97710.03;;;0.59;83.93
57232;BME280;43488;46.934;8.276;2023-02-16T07:13:53;97718.63;;;0.59;83.33
57232;BME280;43488;46.934;8.276;2023-02-16T07:16:20;97715.78;;;0.62;83.36
57232;BME280;43488;46.934;8.276;2023-02-16T07:18:48;97720.16;;;0.62;82.95
57232;BME280;43488;46.934;8.276;2023-02-16T07:21:17;97721.78;;;0.51;83.83
57232;BME280;43488;46.934;8.276;2023-02-16T07:23:45;97717.22;;;0.55;83.73
57232;BME280;43488;46.934;8.276;2023-02-16T07:26:12;97728.63;;;0.64;83.72
57232;BME280;43488;46.934;8.276;2023-02-16T07:28:40;97718.50;;;0.61;83.34
57232;BME280;43488;46.934;8.276;2023-02-16T07:31:11;97722.03;;;0.60;84.76
57232;BME280;43488;46.934;8.276;2023-02-16T07:33:40;97712.97;;;0.65;85.00
57232;BME280;43488;46.934;8.276;2023-02-16T07:36:09;97718.28;;;0.75;85.47
57232;BME280;43488;46.934;8.276;2023-02-16T07:38:38;97721.13;;;0.83;86.68
57232;BME280;43488;46.934;8.276;2023-02-16T07:41:11;97722.41;;;0.89;90.39
57232;BME280;43488;46.934;8.276;2023-02-16T07:43:41;97724.41;;;0.96;93.68
57232;BME280;43488;46.934;8.276;2023-02-16T07:46:09;97727.84;;;1.08;93.71
57232;BME280;43488;46.934;8.276;2023-02-16T07:48:38;97729.59;;;1.07;92.07
57232;BME280;43488;46.934;8.276;2023-02-16T07:51:05;97712.06;;;1.11;93.02
57232;BME280;43488;46.934;8.276;2023-02-16T07:53:33;97723.69;;;1.17;92.34
57232;BME280;43488;46.934;8.276;2023-02-16T07:56:01;97731.47;;;1.28;91.60
57232;BME280;43488;46.934;8.276;2023-02-16T07:58:29;97727.97;;;1.29;92.12
57232;BME280;43488;46.934;8.276;2023-02-16T08:01:10;97721.56;;;1.33;93.65
57232;BME280;43488;46.934;8.276;2023-02-16T08:03:38;97715.53;;;1.43;94.45
57232;BME280;43488;46.934;8.276;2023-02-16T08:06:06;97727.56;;;1.56;93.96
57232;BME280;43488;46.934;8.276;2023-02-16T08:08:35;97724.59;;;1.60;92.41
57232;BME280;43488;46.934;8.276;2023-02-16T08:11:24;97723.25;;;1.77;91.73
57232;BME280;43488;46.934;8.276;2023-02-16T08:13:54;97712.97;;;1.87;91.02
57232;BME280;43488;46.934;8.276;2023-02-16T08:16:25;97714.69;;;1.97;90.43
57232;BME280;43488;46.934;8.276;2023-02-16T08:18:56;97725.41;;;2.04;89.61
57232;BME280;43488;46.934;8.276;2023-02-16T08:21:29;97718.50;;;2.14;89.52
57232;BME280;43488;46.934;8.276;2023-02-16T08:24:01;97720.09;;;2.26;89.92
57232;BME280;43488;46.934;8.276;2023-02-16T08:26:35;97713.38;;;2.45;89.09
57232;BME280;43488;46.934;8.276;2023-02-16T08:29:04;97716.63;;;2.58;88.34
57232;BME280;43488;46.934;8.276;2023-02-16T08:31:33;97719.03;;;2.71;87.95
57232;BME280;43488;46.934;8.276;2023-02-16T08:34:01;97713.22;;;2.88;87.80
57232;BME280;43488;46.934;8.276;2023-02-16T08:36:31;97704.38;;;3.00;86.63
57232;BME280;43488;46.934;8.276;2023-02-16T08:39:05;97710.75;;;3.17;86.11
57232;BME280;43488;46.934;8.276;2023-02-16T08:41:35;97710.81;;;3.36;88.25
57232;BME280;43488;46.934;8.276;2023-02-16T08:44:03;97704.00;;;3.55;87.19
57232;BME280;43488;46.934;8.276;2023-02-16T08:46:33;97700.19;;;3.68;83.95
57232;BME280;43488;46.934;8.276;2023-02-16T08:49:00;97703.09;;;3.85;84.77
57232;BME280;43488;46.934;8.276;2023-02-16T08:51:30;97691.16;;;4.02;84.57
57232;BME280;43488;46.934;8.276;2023-02-16T08:53:58;97698.28;;;4.19;82.95
57232;BME280;43488;46.934;8.276;2023-02-16T08:56:26;97699.38;;;4.26;82.25
57232;BME280;43488;46.934;8.276;2023-02-16T08:58:55;97690.44;;;4.38;81.24
57232;BME280;43488;46.934;8.276;2023-02-16T09:01:23;97695.41;;;4.41;80.54
57232;BME280;43488;46.934;8.276;2023-02-16T09:03:50;97701.69;;;4.58;80.03
57232;BME280;43488;46.934;8.276;2023-02-16T09:06:19;97702.63;;;4.67;78.87
57232;BME280;43488;46.934;8.276;2023-02-16T09:08:54;97701.59;;;4.87;79.33
57232;BME280;43488;46.934;8.276;2023-02-16T09:11:23;97703.06;;;4.99;78.55
57232;BME280;43488;46.934;8.276;2023-02-16T09:13:50;97706.72;;;5.16;77.55
57232;BME280;43488;46.934;8.276;2023-02-16T09:16:19;97703.31;;;5.06;79.53
57232;BME280;43488;46.934;8.276;2023-02-16T09:18:48;97711.53;;;5.11;79.21
57232;BME280;43488;46.934;8.276;2023-02-16T09:21:20;97710.19;;;5.34;77.16
57232;BME280;43488;46.934;8.276;2023-02-16T09:23:48;97703.53;;;5.50;74.08
57232;BME280;43488;46.934;8.276;2023-02-16T09:26:17;97699.22;;;5.58;71.93
57232;BME280;43488;46.934;8.276;2023-02-16T09:28:45;97709.97;;;5.73;71.45
57232;BME280;43488;46.934;8.276;2023-02-16T09:31:16;97711.84;;;5.81;70.57
57232;BME280;43488;46.934;8.276;2023-02-16T09:33:45;97708.09;;;5.93;70.11
57232;BME280;43488;46.934;8.276;2023-02-16T09:36:13;97701.59;;;6.15;71.52
57232;BME280;43488;46.934;8.276;2023-02-16T09:38:40;97710.44;;;6.40;73.28
57232;BME280;43488;46.934;8.276;2023-02-16T09:44:20;97707.63;;;6.77;73.19
57232;BME280;43488;46.934;8.276;2023-02-16T09:46:48;97712.28;;;6.91;71.66
57232;BME280;43488;46.934;8.276;2023-02-16T09:49:40;97705.69;;;7.05;67.82
57232;BME280;43488;46.934;8.276;2023-02-16T09:52:34;97701.75;;;7.09;64.44
57232;BME280;43488;46.934;8.276;2023-02-16T09:55:06;97708.63;;;7.10;64.72
57232;BME280;43488;46.934;8.276;2023-02-16T10:03:34;97697.69;;;7.57;64.68
57232;BME280;43488;46.934;8.276;2023-02-16T10:08:44;97699.06;;;7.85;61.06
57232;BME280;43488;46.934;8.276;2023-02-16T10:11:21;97689.78;;;8.07;62.81
57232;BME280;43488;46.934;8.276;2023-02-16T10:17:24;97682.56;;;8.50;59.34
57232;BME280;43488;46.934;8.276;2023-02-16T10:20:11;97694.03;;;8.73;61.45
57232;BME280;43488;46.934;8.276;2023-02-16T10:22:48;97683.81;;;8.95;59.09
57232;BME280;43488;46.934;8.276;2023-02-16T10:25:30;97684.41;;;9.13;58.60
57232;BME280;43488;46.934;8.276;2023-02-16T10:28:28;97686.50;;;9.34;58.86
57232;BME280;43488;46.934;8.276;2023-02-16T10:31:04;97683.31;;;9.47;58.17
57232;BME280;43488;46.934;8.276;2023-02-16T10:33:45;97676.13;;;9.72;57.58
57232;BME280;43488;46.934;8.276;2023-02-16T10:41:45;97671.13;;;10.31;56.21
57232;BME280;43488;46.934;8.276;2023-02-16T10:44:30;97673.75;;;10.53;52.20
57232;BME280;43488;46.934;8.276;2023-02-16T10:47:02;97670.06;;;10.77;50.42
57232;BME280;43488;46.934;8.276;2023-02-16T10:49:32;97669.00;;;11.01;50.58
57232;BME280;43488;46.934;8.276;2023-02-16T10:52:02;97658.72;;;11.06;49.25
57232;BME280;43488;46.934;8.276;2023-02-16T10:54:32;97668.16;;;11.30;49.45
57232;BME280;43488;46.934;8.276;2023-02-16T10:57:04;97660.50;;;11.50;48.74
57232;BME280;43488;46.934;8.276;2023-02-16T10:59:42;97661.97;;;11.53;47.89
57232;BME280;43488;46.934;8.276;2023-02-16T11:02:37;97652.41;;;11.88;47.35
57232;BME280;43488;46.934;8.276;2023-02-16T11:05:35;97646.69;;;12.06;46.67
57232;BME280;43488;46.934;8.276;2023-02-16T11:08:07;97646.03;;;12.18;45.66
57232;BME280;43488;46.934;8.276;2023-02-16T11:13:34;97647.63;;;12.69;45.10
57232;BME280;43488;46.934;8.276;2023-02-16T11:16:21;97640.81;;;12.81;44.60
57232;BME280;43488;46.934;8.276;2023-02-16T11:19:20;97638.25;;;12.94;43.68
57232;BME280;43488;46.934;8.276;2023-02-16T11:21:54;97639.88;;;12.95;43.06
57232;BME280;43488;46.934;8.276;2023-02-16T11:24:36;97633.66;;;12.75;43.11
57232;BME280;43488;46.934;8.276;2023-02-16T11:29:31;97625.31;;;13.47;42.40
57232;BME280;43488;46.934;8.276;2023-02-16T11:32:08;97623.78;;;13.73;43.32
57232;BME280;43488;46.934;8.276;2023-02-16T11:34:46;97614.84;;;13.93;42.99
57232;BME280;43488;46.934;8.276;2023-02-16T11:39:53;97601.66;;;14.46;42.49
57232;BME280;43488;46.934;8.276;2023-02-16T11:42:28;97602.47;;;14.47;42.37
57232;BME280;43488;46.934;8.276;2023-02-16T11:44:58;97608.19;;;14.64;42.93
57232;BME280;43488;46.934;8.276;2023-02-16T11:47:31;97601.00;;;14.91;42.36
57232;BME280;43488;46.934;8.276;2023-02-16T11:52:52;97601.09;;;15.16;39.79
57232;BME280;43488;46.934;8.276;2023-02-16T11:55:29;97598.22;;;14.46;41.45
57232;BME280;43488;46.934;8.276;2023-02-16T11:58:35;97599.84;;;14.47;41.69
57232;BME280;43488;46.934;8.276;2023-02-16T12:01:26;97602.84;;;14.77;39.62
57232;BME280;43488;46.934;8.276;2023-02-16T12:12:32;97589.31;;;15.95;38.34
57232;BME280;43488;46.934;8.276;2023-02-16T12:15:20;97594.31;;;15.78;37.03
57232;BME280;43488;46.934;8.276;2023-02-16T12:26:51;97571.69;;;17.30;34.37
57232;BME280;43488;46.934;8.276;2023-02-16T12:29:48;97568.59;;;17.93;34.07
57232;BME280;43488;46.934;8.276;2023-02-16T12:38:57;97551.50;;;23.02;26.20
57232;BME280;43488;46.934;8.276;2023-02-16T12:41:48;97554.25;;;25.41;23.34
57232;BME280;43488;46.934;8.276;2023-02-16T12:44:36;97546.94;;;27.78;20.21
57232;BME280;43488;46.934;8.276;2023-02-16T12:47:15;97546.50;;;29.29;18.86
57232;BME280;43488;46.934;8.276;2023-02-16T12:50:00;97552.00;;;27.61;19.73
57232;BME280;43488;46.934;8.276;2023-02-16T12:52:37;97546.28;;;27.25;19.00
57232;BME280;43488;46.934;8.276;2023-02-16T12:55:26;97536.22;;;29.90;18.03
57232;BME280;43488;46.934;8.276;2023-02-16T12:58:09;97530.88;;;31.80;15.18
57232;BME280;43488;46.934;8.276;2023-02-16T13:00:57;97529.84;;;32.53;15.59
57232;BME280;43488;46.934;8.276;2023-02-16T13:03:49;97529.72;;;32.24;15.21
57232;BME280;43488;46.934;8.276;2023-02-16T13:06:44;97535.63;;;32.52;15.28
57232;BME280;43488;46.934;8.276;2023-02-16T13:09:50;97534.59;;;30.25;16.79
57232;BME280;43488;46.934;8.276;2023-02-16T13:12:46;97525.59;;;31.09;15.61
57232;BME280;43488;46.934;8.276;2023-02-16T13:15:31;97528.50;;;31.12;16.27
57232;BME280;43488;46.934;8.276;2023-02-16T13:21:13;97518.00;;;33.26;13.29
57232;BME280;43488;46.934;8.276;2023-02-16T13:24:13;97520.19;;;34.70;12.44
57232;BME280;43488;46.934;8.276;2023-02-16T13:37:29;97508.47;;;36.51;10.74
57232;BME280;43488;46.934;8.276;2023-02-16T13:41:03;97509.28;;;33.83;12.20
57232;BME280;43488;46.934;8.276;2023-02-16T13:44:19;97497.78;;;35.90;10.92
57232;BME280;43488;46.934;8.276;2023-02-16T13:46:50;97495.09;;;36.81;10.71
57232;BME280;43488;46.934;8.276;2023-02-16T13:49:27;97485.16;;;37.59;10.30
57232;BME280;43488;46.934;8.276;2023-02-16T13:51:54;97478.16;;;38.00;10.15
57232;BME280;43488;46.934;8.276;2023-02-16T13:54:37;97485.84;;;37.91;9.78
57232;BME280;43488;46.934;8.276;2023-02-16T13:57:11;97475.19;;;36.37;10.37
57232;BME280;43488;46.934;8.276;2023-02-16T14:02:11;97472.50;;;36.25;10.67
57232;BME280;43488;46.934;8.276;2023-02-16T14:09:47;97455.63;;;36.38;9.71
57232;BME280;43488;46.934;8.276;2023-02-16T14:12:30;97451.13;;;37.83;9.39
57232;BME280;43488;46.934;8.276;2023-02-16T14:15:15;97460.16;;;38.03;8.85
57232;BME280;43488;46.934;8.276;2023-02-16T14:17:44;97454.53;;;38.61;9.23
57232;BME280;43488;46.934;8.276;2023-02-16T14:27:53;97446.69;;;36.57;10.10
57232;BME280;43488;46.934;8.276;2023-02-16T14:30:44;97444.81;;;35.58;10.47
57232;BME280;43488;46.934;8.276;2023-02-16T14:38:29;97450.56;;;38.35;8.99
57232;BME280;43488;46.934;8.276;2023-02-16T14:41:02;97453.59;;;38.30;8.77
57232;BME280;43488;46.934;8.276;2023-02-16T14:43:47;97456.91;;;38.39;9.27
57232;BME280;43488;46.934;8.276;2023-02-16T14:46:32;97455.41;;;38.42;9.69
57232;BME280;43488;46.934;8.276;2023-02-16T14:58:37;97450.88;;;35.79;10.80
57232;BME280;43488;46.934;8.276;2023-02-16T15:01:17;97446.81;;;34.72;11.46
57232;BME280;43488;46.934;8.276;2023-02-16T15:03:52;97441.09;;;33.74;12.11
57232;BME280;43488;46.934;8.276;2023-02-16T15:06:43;97446.59;;;33.03;12.76
57232;BME280;43488;46.934;8.276;2023-02-16T15:09:32;97444.75;;;31.92;13.09
57232;BME280;43488;46.934;8.276;2023-02-16T15:12:09;97454.81;;;30.74;13.85
57232;BME280;43488;46.934;8.276;2023-02-16T15:15:03;97452.53;;;29.83;14.61
57232;BME280;43488;46.934;8.276;2023-02-16T15:17:44;97447.06;;;30.59;14.45
57232;BME280;43488;46.934;8.276;2023-02-16T15:20:32;97448.50;;;30.56;14.27
57232;BME280;43488;46.934;8.276;2023-02-16T15:23:16;97449.94;;;31.02;14.49
57232;BME280;43488;46.934;8.276;2023-02-16T15:26:04;97455.31;;;30.14;14.85
57232;BME280;43488;46.934;8.276;2023-02-16T15:28:38;97449.31;;;30.03;14.87
57232;BME280;43488;46.934;8.276;2023-02-16T15:31:17;97456.78;;;29.39;15.72
57232;BME280;43488;46.934;8.276;2023-02-16T15:33:56;97454.22;;;27.92;16.70
57232;BME280;43488;46.934;8.276;2023-02-16T15:36:38;97451.69;;;27.01;17.95
57232;BME280;43488;46.934;8.276;2023-02-16T15:39:12;97456.59;;;24.35;19.83
57232;BME280;43488;46.934;8.276;2023-02-16T15:41:44;97460.56;;;23.41;21.16
57232;BME280;43488;46.934;8.276;2023-02-16T15:44:31;97466.19;;;22.61;22.01
57232;BME280;43488;46.934;8.276;2023-02-16T15:47:19;97464.59;;;21.54;23.27
57232;BME280;43488;46.934;8.276;2023-02-16T15:49:49;97466.59;;;20.32;24.63